createdAt,value
2018-08-11T00:00:40.125Z,16.26
2018-08-11T00:01:40.096Z,16.33
2018-08-11T00:02:40.072Z,16.26
2018-08-11T00:03:40.051Z,16.23
2018-08-11T00:04:40.023Z,16.18
2018-08-11T00:05:39.992Z,16.06
2018-08-11T00:06:39.979Z,16.23
2018-08-11T00:07:39.947Z,16.18
2018-08-11T00:08:39.922Z,16.07
2018-08-11T00:09:40.832Z,16.12
2018-08-11T00:10:39.881Z,16.09
2018-08-11T00:11:39.831Z,16.07
2018-08-11T00:12:39.833Z,16.06
2018-08-11T00:13:39.806Z,16.07
2018-08-11T00:14:39.765Z,16.09
2018-08-11T00:15:39.757Z,16.07
2018-08-11T00:16:39.725Z,16.04
2018-08-11T00:17:39.725Z,16.04
2018-08-11T00:18:39.671Z,16.03
2018-08-11T00:19:39.658Z,16.04
2018-08-11T00:20:39.633Z,15.97
2018-08-11T00:21:39.592Z,15.85
2018-08-11T00:22:39.585Z,15.93
2018-08-11T00:23:39.556Z,15.93
2018-08-11T00:24:39.541Z,15.99
2018-08-11T00:25:39.492Z,15.93
2018-08-11T00:26:39.492Z,15.82
2018-08-11T00:27:39.462Z,15.88
2018-08-11T00:28:39.421Z,15.84
2018-08-11T00:29:39.397Z,15.82
2018-08-11T00:30:39.393Z,15.82
2018-08-11T00:31:39.368Z,15.75
2018-08-11T00:32:39.352Z,15.82
2018-08-11T00:33:39.326Z,15.82
2018-08-11T00:34:39.288Z,15.75
2018-08-11T00:35:39.267Z,15.86
2018-08-11T00:36:39.244Z,15.76
2018-08-11T00:37:39.218Z,15.75
2018-08-11T00:38:39.195Z,15.70
2018-08-11T00:39:39.174Z,15.70
2018-08-11T00:40:39.157Z,15.72
2018-08-11T00:41:39.129Z,15.63
2018-08-11T00:42:39.096Z,15.67
2018-08-11T00:43:39.070Z,15.60
2018-08-11T00:44:39.059Z,15.64
2018-08-11T00:45:39.030Z,15.64
2018-08-11T00:46:39.016Z,15.52
2018-08-11T00:47:38.977Z,15.59
2018-08-11T00:48:38.951Z,15.54
2018-08-11T00:49:38.942Z,15.54
2018-08-11T00:50:38.908Z,15.56
2018-08-11T00:51:38.882Z,15.42
2018-08-11T00:52:38.858Z,15.42
2018-08-11T00:53:38.827Z,15.30
2018-08-11T00:54:38.803Z,15.21
2018-08-11T00:55:38.784Z,15.13
2018-08-11T00:56:38.744Z,15.12
2018-08-11T00:57:38.740Z,15.17
2018-08-11T00:58:38.706Z,15.09
2018-08-11T00:59:38.680Z,15.08
2018-08-11T01:00:38.663Z,15.02
2018-08-11T01:01:38.621Z,15.11
2018-08-11T01:02:38.623Z,14.99
2018-08-11T01:03:38.588Z,15.08
2018-08-11T01:04:38.564Z,15.01
2018-08-11T01:05:38.541Z,14.99
2018-08-11T01:06:38.510Z,15.03
2018-08-11T01:07:38.484Z,14.95
2018-08-11T01:08:38.448Z,14.94
2018-08-11T01:09:38.438Z,14.86
2018-08-11T01:10:38.411Z,14.72
2018-08-11T01:11:38.385Z,14.91
2018-08-11T01:12:38.345Z,14.90
2018-08-11T01:13:38.322Z,14.86
2018-08-11T01:14:38.314Z,14.87
2018-08-11T01:15:38.296Z,14.78
2018-08-11T01:16:38.274Z,14.74
2018-08-11T01:17:38.244Z,14.74
2018-08-11T01:18:38.219Z,14.71
2018-08-11T01:19:38.193Z,14.71
2018-08-11T01:20:38.163Z,14.75
2018-08-11T01:21:38.146Z,14.69
2018-08-11T01:22:38.116Z,14.75
2018-08-11T01:23:38.097Z,14.72
2018-08-11T01:24:38.064Z,14.72
2018-08-11T01:25:38.044Z,14.67
2018-08-11T01:26:38.017Z,14.71
2018-08-11T01:27:37.995Z,14.65
2018-08-11T01:28:37.951Z,14.64
2018-08-11T01:29:37.949Z,14.69
2018-08-11T01:30:37.907Z,14.67
2018-08-11T01:31:37.898Z,14.57
2018-08-11T01:32:37.849Z,14.54
2018-08-11T01:33:37.844Z,14.54
2018-08-11T01:34:37.802Z,14.62
2018-08-11T01:35:37.796Z,14.56
2018-08-11T01:36:37.778Z,14.56
2018-08-11T01:37:37.747Z,14.64
2018-08-11T01:38:37.705Z,14.64
2018-08-11T01:39:37.696Z,14.57
2018-08-11T01:40:37.666Z,14.52
2018-08-11T01:41:37.642Z,14.61
2018-08-11T01:42:37.625Z,14.54
2018-08-11T01:43:37.597Z,14.50
2018-08-11T01:44:37.572Z,14.52
2018-08-11T01:45:37.529Z,14.57
2018-08-11T01:46:37.520Z,14.54
2018-08-11T01:47:37.475Z,14.56
2018-08-11T01:48:37.474Z,14.39
2018-08-11T01:49:37.446Z,14.37
2018-08-11T01:50:37.422Z,14.44
2018-08-11T01:51:37.397Z,14.42
2018-08-11T01:52:37.374Z,14.37
2018-08-11T01:53:37.329Z,14.35
2018-08-11T01:54:37.316Z,14.25
2018-08-11T01:55:37.284Z,14.31
2018-08-11T01:56:37.257Z,14.29
2018-08-11T01:57:37.244Z,14.25
2018-08-11T01:58:37.203Z,14.27
2018-08-11T01:59:37.201Z,14.34
2018-08-11T02:00:37.174Z,14.28
2018-08-11T02:01:37.155Z,14.25
2018-08-11T02:02:37.117Z,14.32
2018-08-11T02:03:37.095Z,14.28
2018-08-11T02:04:37.142Z,14.21
2018-08-11T02:05:37.057Z,14.24
2018-08-11T02:06:37.029Z,14.27
2018-08-11T02:07:36.999Z,14.17
2018-08-11T02:08:36.976Z,14.28
2018-08-11T02:09:36.929Z,14.32
2018-08-11T02:10:36.916Z,14.21
2018-08-11T02:11:36.898Z,14.21
2018-08-11T02:12:36.873Z,14.13
2018-08-11T02:13:36.832Z,14.17
2018-08-11T02:14:36.818Z,14.25
2018-08-11T02:15:36.807Z,14.27
2018-08-11T02:16:36.768Z,14.19
2018-08-11T02:17:36.747Z,14.17
2018-08-11T02:18:36.723Z,14.17
2018-08-11T02:19:36.682Z,14.13
2018-08-11T02:20:36.653Z,14.04
2018-08-11T02:21:36.651Z,14.01
2018-08-11T02:22:36.630Z,14.10
2018-08-11T02:23:36.595Z,14.06
2018-08-11T02:24:36.604Z,14.10
2018-08-11T02:25:36.551Z,14.04
2018-08-11T02:26:36.503Z,14.07
2018-08-11T02:27:36.491Z,14.04
2018-08-11T02:28:36.473Z,14.06
2018-08-11T02:29:36.444Z,14.06
2018-08-11T02:30:36.401Z,14.07
2018-08-11T02:31:36.398Z,14.09
2018-08-11T02:32:36.370Z,13.99
2018-08-11T02:33:36.344Z,13.91
2018-08-11T02:34:36.316Z,13.98
2018-08-11T02:35:36.290Z,13.98
2018-08-11T02:36:36.270Z,13.92
2018-08-11T02:37:36.246Z,13.83
2018-08-11T02:38:36.221Z,13.81
2018-08-11T02:39:36.192Z,13.88
2018-08-11T02:40:36.168Z,13.81
2018-08-11T02:41:36.129Z,13.88
2018-08-11T02:42:36.120Z,13.84
2018-08-11T02:43:36.090Z,13.89
2018-08-11T02:44:36.067Z,13.87
2018-08-11T02:45:36.026Z,13.76
2018-08-11T02:46:36.017Z,13.87
2018-08-11T02:47:35.991Z,13.74
2018-08-11T02:48:35.965Z,13.74
2018-08-11T02:49:35.938Z,13.74
2018-08-11T02:50:35.920Z,13.70
2018-08-11T02:51:35.898Z,13.63
2018-08-11T02:52:35.860Z,13.63
2018-08-11T02:53:35.844Z,13.69
2018-08-11T02:54:35.815Z,13.63
2018-08-11T02:55:35.792Z,13.62
2018-08-11T02:56:35.770Z,13.74
2018-08-11T02:57:35.744Z,13.73
2018-08-11T02:58:35.717Z,13.74
2018-08-11T02:59:35.694Z,13.70
2018-08-11T03:00:35.667Z,13.70
2018-08-11T03:01:35.647Z,13.71
2018-08-11T03:02:35.683Z,13.71
2018-08-11T03:03:35.586Z,13.67
2018-08-11T03:04:35.562Z,13.63
2018-08-11T03:05:35.535Z,13.54
2018-08-11T03:06:35.508Z,13.58
2018-08-11T03:07:35.494Z,13.54
2018-08-11T03:08:35.459Z,13.56
2018-08-11T03:09:35.444Z,13.58
2018-08-11T03:10:35.413Z,13.46
2018-08-11T03:11:35.386Z,13.58
2018-08-11T03:12:35.364Z,13.59
2018-08-11T03:13:35.335Z,13.46
2018-08-11T03:14:35.312Z,13.56
2018-08-11T03:15:35.287Z,13.43
2018-08-11T03:16:35.256Z,13.41
2018-08-11T03:17:35.215Z,13.41
2018-08-11T03:18:35.211Z,13.36
2018-08-11T03:19:35.162Z,13.40
2018-08-11T03:20:35.156Z,13.36
2018-08-11T03:21:35.138Z,13.36
2018-08-11T03:22:35.103Z,13.27
2018-08-11T03:23:35.084Z,13.25
2018-08-11T03:24:35.061Z,13.25
2018-08-11T03:25:35.029Z,13.20
2018-08-11T03:26:34.999Z,13.25
2018-08-11T03:27:34.986Z,13.20
2018-08-11T03:28:34.953Z,13.17
2018-08-11T03:29:34.930Z,13.11
2018-08-11T03:30:34.904Z,13.15
2018-08-11T03:31:34.876Z,13.12
2018-08-11T03:32:34.859Z,13.09
2018-08-11T03:33:34.805Z,13.15
2018-08-11T03:34:34.797Z,13.18
2018-08-11T03:35:34.773Z,13.22
2018-08-11T03:36:34.747Z,13.21
2018-08-11T03:37:34.701Z,13.17
2018-08-11T03:38:34.686Z,13.22
2018-08-11T03:39:34.669Z,13.21
2018-08-11T03:40:34.650Z,13.24
2018-08-11T03:41:34.623Z,13.24
2018-08-11T03:42:34.594Z,13.24
2018-08-11T03:43:34.566Z,13.27
2018-08-11T03:44:34.528Z,13.25
2018-08-11T03:45:34.519Z,13.15
2018-08-11T03:46:34.497Z,13.25
2018-08-11T03:47:34.470Z,13.22
2018-08-11T03:48:34.437Z,13.21
2018-08-11T03:49:34.415Z,13.06
2018-08-11T03:50:34.393Z,13.14
2018-08-11T03:51:34.363Z,13.17
2018-08-11T03:52:34.430Z,13.15
2018-08-11T03:53:34.318Z,13.09
2018-08-11T03:54:34.287Z,13.15
2018-08-11T03:55:34.266Z,13.14
2018-08-11T03:56:34.235Z,13.15
2018-08-11T03:57:34.215Z,13.09
2018-08-11T03:58:34.185Z,13.09
2018-08-11T03:59:34.142Z,13.07
2018-08-11T04:00:34.133Z,13.06
2018-08-11T04:01:34.107Z,13.04
2018-08-11T04:02:34.081Z,13.03
2018-08-11T04:03:34.039Z,12.99
2018-08-11T04:04:34.012Z,13.06
2018-08-11T04:05:34.008Z,13.04
2018-08-11T04:06:33.998Z,13.09
2018-08-11T04:07:33.952Z,13.09
2018-08-11T04:08:33.929Z,13.18
2018-08-11T04:09:33.914Z,13.11
2018-08-11T04:10:33.874Z,13.11
2018-08-11T04:11:33.836Z,13.04
2018-08-11T04:12:33.829Z,13.09
2018-08-11T04:13:33.802Z,13.06
2018-08-11T04:14:33.776Z,13.06
2018-08-11T04:15:33.729Z,13.00
2018-08-11T04:16:33.722Z,13.06
2018-08-11T04:17:33.694Z,12.99
2018-08-11T04:18:33.669Z,12.92
2018-08-11T04:19:33.640Z,12.87
2018-08-11T04:20:33.623Z,12.84
2018-08-11T04:21:33.595Z,12.79
2018-08-11T04:22:33.563Z,12.71
2018-08-11T04:23:33.545Z,12.75
2018-08-11T04:24:33.498Z,12.79
2018-08-11T04:25:33.500Z,12.84
2018-08-11T04:26:33.462Z,12.84
2018-08-11T04:27:33.441Z,12.89
2018-08-11T04:28:33.400Z,12.82
2018-08-11T04:29:33.394Z,12.71
2018-08-11T04:30:33.346Z,12.71
2018-08-11T04:31:33.333Z,12.63
2018-08-11T04:32:33.313Z,12.62
2018-08-11T04:33:33.289Z,12.67
2018-08-11T04:34:33.260Z,12.63
2018-08-11T04:35:33.243Z,12.64
2018-08-11T04:36:33.213Z,12.63
2018-08-11T04:37:33.187Z,12.60
2018-08-11T04:38:33.138Z,12.69
2018-08-11T04:39:33.131Z,12.59
2018-08-11T04:40:33.091Z,12.67
2018-08-11T04:41:33.061Z,12.63
2018-08-11T04:42:33.052Z,12.62
2018-08-11T04:43:33.027Z,12.69
2018-08-11T04:44:33.003Z,12.64
2018-08-11T04:45:32.980Z,12.62
2018-08-11T04:46:32.953Z,12.60
2018-08-11T04:47:32.930Z,12.57
2018-08-11T04:48:32.899Z,12.49
2018-08-11T04:49:32.859Z,12.62
2018-08-11T04:50:32.853Z,12.59
2018-08-11T04:51:32.803Z,12.49
2018-08-11T04:52:32.783Z,12.46
2018-08-11T04:53:32.767Z,12.49
2018-08-11T04:54:32.747Z,12.51
2018-08-11T04:55:32.721Z,12.46
2018-08-11T04:56:32.696Z,12.39
2018-08-11T04:57:32.667Z,12.41
2018-08-11T04:58:32.643Z,12.45
2018-08-11T04:59:32.613Z,12.42
2018-08-11T05:00:32.592Z,12.49
2018-08-11T05:01:32.563Z,12.49
2018-08-11T05:02:32.542Z,12.51
2018-08-11T05:03:32.508Z,12.48
2018-08-11T05:04:32.487Z,12.37
2018-08-11T05:05:32.459Z,12.39
2018-08-11T05:06:32.436Z,12.38
2018-08-11T05:07:32.409Z,12.39
2018-08-11T05:08:32.380Z,12.44
2018-08-11T05:09:32.354Z,12.41
2018-08-11T05:10:32.333Z,12.45
2018-08-11T05:11:32.306Z,12.41
2018-08-11T05:12:32.278Z,12.37
2018-08-11T05:13:32.235Z,12.39
2018-08-11T05:14:32.225Z,12.37
2018-08-11T05:15:32.179Z,12.45
2018-08-11T05:16:32.170Z,12.44
2018-08-11T05:17:32.147Z,12.41
2018-08-11T05:18:32.125Z,12.29
2018-08-11T05:19:32.092Z,12.24
2018-08-11T05:20:32.074Z,12.41
2018-08-11T05:21:32.042Z,12.29
2018-08-11T05:22:32.015Z,12.27
2018-08-11T05:23:31.996Z,12.30
2018-08-11T05:24:31.971Z,12.31
2018-08-11T05:25:31.947Z,12.30
2018-08-11T05:26:31.916Z,12.29
2018-08-11T05:27:31.889Z,12.26
2018-08-11T05:28:31.858Z,12.21
2018-08-11T05:29:31.833Z,12.19
2018-08-11T05:30:31.806Z,12.13
2018-08-11T05:31:31.789Z,12.15
2018-08-11T05:32:31.753Z,12.13
2018-08-11T05:33:31.729Z,12.12
2018-08-11T05:34:31.689Z,12.13
2018-08-11T05:35:31.681Z,12.15
2018-08-11T05:36:31.653Z,12.15
2018-08-11T05:37:31.627Z,12.15
2018-08-11T05:38:31.602Z,12.04
2018-08-11T05:39:31.572Z,12.13
2018-08-11T05:40:31.550Z,12.13
2018-08-11T05:41:31.525Z,12.09
2018-08-11T05:42:31.496Z,12.06
2018-08-11T05:43:31.468Z,12.16
2018-08-11T05:44:31.440Z,12.20
2018-08-11T05:45:31.403Z,12.20
2018-08-11T05:46:31.428Z,12.16
2018-08-11T05:47:31.367Z,12.19
2018-08-11T05:48:31.342Z,12.11
2018-08-11T05:49:31.309Z,11.96
2018-08-11T05:50:31.284Z,12.01
2018-08-11T05:51:31.263Z,12.01
2018-08-11T05:52:31.238Z,11.90
2018-08-11T05:53:31.219Z,11.93
2018-08-11T05:54:31.166Z,11.94
2018-08-11T05:55:31.160Z,11.93
2018-08-11T05:56:31.131Z,11.99
2018-08-11T05:57:31.104Z,12.11
2018-08-11T05:58:31.086Z,12.02
2018-08-11T05:59:31.060Z,12.06
2018-08-11T06:00:31.028Z,11.90
2018-08-11T06:01:31.003Z,12.01
2018-08-11T06:02:30.973Z,11.85
2018-08-11T06:03:30.938Z,11.89
2018-08-11T06:04:30.905Z,11.87
2018-08-11T06:05:30.893Z,11.85
2018-08-11T06:06:30.874Z,11.82
2018-08-11T06:07:30.844Z,11.85
2018-08-11T06:08:30.797Z,11.80
2018-08-11T06:09:30.792Z,11.75
2018-08-11T06:10:30.790Z,11.86
2018-08-11T06:11:30.735Z,11.93
2018-08-11T06:12:30.712Z,11.93
2018-08-11T06:13:30.688Z,11.83
2018-08-11T06:14:30.660Z,11.86
2018-08-11T06:15:30.931Z,11.87
2018-08-11T06:16:30.587Z,11.86
2018-08-11T06:17:30.579Z,11.72
2018-08-11T06:18:30.533Z,11.86
2018-08-11T06:19:30.504Z,11.83
2018-08-11T06:20:30.503Z,11.89
2018-08-11T06:21:30.462Z,11.89
2018-08-11T06:22:30.443Z,11.82
2018-08-11T06:23:30.419Z,11.77
2018-08-11T06:24:30.396Z,11.82
2018-08-11T06:25:30.369Z,11.85
2018-08-11T06:26:30.341Z,11.87
2018-08-11T06:27:30.311Z,11.85
2018-08-11T06:28:30.291Z,11.78
2018-08-11T06:29:30.271Z,11.68
2018-08-11T06:30:30.235Z,11.80
2018-08-11T06:31:30.387Z,11.59
2018-08-11T06:32:30.179Z,11.65
2018-08-11T06:33:30.140Z,11.65
2018-08-11T06:34:30.130Z,11.65
2018-08-11T06:35:30.107Z,11.80
2018-08-11T06:36:30.078Z,11.68
2018-08-11T06:37:30.034Z,11.59
2018-08-11T06:38:30.033Z,11.72
2018-08-11T06:39:30.011Z,11.61
2018-08-11T06:40:29.981Z,11.65
2018-08-11T06:41:29.930Z,11.67
2018-08-11T06:42:29.914Z,11.64
2018-08-11T06:43:29.899Z,11.68
2018-08-11T06:44:29.849Z,11.62
2018-08-11T06:45:29.847Z,11.80
2018-08-11T06:46:29.821Z,11.65
2018-08-11T06:47:29.789Z,11.71
2018-08-11T06:48:29.763Z,11.61
2018-08-11T06:49:29.735Z,11.53
2018-08-11T06:50:29.686Z,11.53
2018-08-11T06:51:29.683Z,11.62
2018-08-11T06:52:29.661Z,11.50
2018-08-11T06:53:29.626Z,11.47
2018-08-11T06:54:29.604Z,11.46
2018-08-11T06:55:29.588Z,11.46
2018-08-11T06:56:29.550Z,11.41
2018-08-11T06:57:29.505Z,11.41
2018-08-11T06:58:29.497Z,11.44
2018-08-11T06:59:29.480Z,11.53
2018-08-11T07:00:29.446Z,11.50
2018-08-11T07:01:29.416Z,11.56
2018-08-11T07:02:29.374Z,11.50
2018-08-11T07:03:29.365Z,11.46
2018-08-11T07:04:29.336Z,11.50
2018-08-11T07:05:29.313Z,11.53
2018-08-11T07:06:29.328Z,11.43
2018-08-11T07:07:29.260Z,11.44
2018-08-11T07:08:29.229Z,11.39
2018-08-11T07:09:29.202Z,11.39
2018-08-11T07:10:29.186Z,11.41
2018-08-11T07:11:29.153Z,11.41
2018-08-11T07:12:29.131Z,11.41
2018-08-11T07:13:29.100Z,11.44
2018-08-11T07:14:29.079Z,11.44
2018-08-11T07:15:29.048Z,11.43
2018-08-11T07:16:29.019Z,11.44
2018-08-11T07:17:28.999Z,11.38
2018-08-11T07:18:28.967Z,11.38
2018-08-11T07:19:28.939Z,11.35
2018-08-11T07:20:28.911Z,11.36
2018-08-11T07:21:28.969Z,11.36
2018-08-11T07:22:28.865Z,11.32
2018-08-11T07:23:28.833Z,11.27
2018-08-11T07:24:28.805Z,11.31
2018-08-11T07:25:28.777Z,11.38
2018-08-11T07:26:28.820Z,11.43
2018-08-11T07:27:28.732Z,11.36
2018-08-11T07:28:28.712Z,11.34
2018-08-11T07:29:28.680Z,11.46
2018-08-11T07:30:28.628Z,11.41
2018-08-11T07:31:28.620Z,11.44
2018-08-11T07:32:28.599Z,11.28
2018-08-11T07:33:28.552Z,11.35
2018-08-11T07:34:28.544Z,11.36
2018-08-11T07:35:28.518Z,11.36
2018-08-11T07:36:28.635Z,11.41
2018-08-11T07:37:28.468Z,11.24
2018-08-11T07:38:28.425Z,11.21
2018-08-11T07:39:28.394Z,11.14
2018-08-11T07:40:28.385Z,11.09
2018-08-11T07:41:28.363Z,11.20
2018-08-11T07:42:28.331Z,11.19
2018-08-11T07:43:28.370Z,11.19
2018-08-11T07:44:28.279Z,11.16
2018-08-11T07:45:28.252Z,11.19
2018-08-11T07:46:28.224Z,11.24
2018-08-11T07:47:28.277Z,11.09
2018-08-11T07:48:28.198Z,11.07
2018-08-11T07:49:28.142Z,11.17
2018-08-11T07:50:28.254Z,11.13
2018-08-11T07:51:28.093Z,11.16
2018-08-11T07:52:28.046Z,11.13
2018-08-11T07:53:28.037Z,11.13
2018-08-11T07:54:27.992Z,11.14
2018-08-11T07:55:27.987Z,11.16
2018-08-11T07:56:27.957Z,11.09
2018-08-11T07:57:27.932Z,11.01
2018-08-11T07:58:27.905Z,11.09
2018-08-11T07:59:27.882Z,10.98
2018-08-11T08:00:27.853Z,11.06
2018-08-11T08:01:27.903Z,11.03
2018-08-11T08:02:27.794Z,11.06
2018-08-11T08:03:27.764Z,11.13
2018-08-11T08:04:27.745Z,11.07
2018-08-11T08:05:27.721Z,11.09
2018-08-11T08:06:27.687Z,10.94
2018-08-11T08:07:27.663Z,11.01
2018-08-11T08:08:27.644Z,11.07
2018-08-11T08:09:27.607Z,11.09
2018-08-11T08:10:27.582Z,11.06
2018-08-11T08:11:27.554Z,11.06
2018-08-11T08:12:27.534Z,11.09
2018-08-11T08:13:27.503Z,10.95
2018-08-11T08:14:27.479Z,10.95
2018-08-11T08:15:27.450Z,10.92
2018-08-11T08:16:27.427Z,10.95
2018-08-11T08:17:27.405Z,10.88
2018-08-11T08:18:27.368Z,10.88
2018-08-11T08:19:27.323Z,10.95
2018-08-11T08:20:27.312Z,10.89
2018-08-11T08:21:27.272Z,10.81
2018-08-11T08:22:27.262Z,10.84
2018-08-11T08:23:27.214Z,10.73
2018-08-11T08:24:27.217Z,10.80
2018-08-11T08:25:27.185Z,10.81
2018-08-11T08:26:27.330Z,10.78
2018-08-11T08:27:27.129Z,10.80
2018-08-11T08:28:27.084Z,10.80
2018-08-11T08:29:27.075Z,10.78
2018-08-11T08:30:27.044Z,10.78
2018-08-11T08:31:27.011Z,10.80
2018-08-11T08:32:26.998Z,10.80
2018-08-11T08:33:26.968Z,10.78
2018-08-11T08:34:26.923Z,10.78
2018-08-11T08:35:26.914Z,10.80
2018-08-11T08:36:26.883Z,10.81
2018-08-11T08:37:26.861Z,10.77
2018-08-11T08:38:26.813Z,10.77
2018-08-11T08:39:26.784Z,10.76
2018-08-11T08:40:26.781Z,10.76
2018-08-11T08:41:26.732Z,10.70
2018-08-11T08:42:26.731Z,10.65
2018-08-11T08:43:26.682Z,10.77
2018-08-11T08:44:26.681Z,10.77
2018-08-11T08:45:26.653Z,10.80
2018-08-11T08:46:26.622Z,10.76
2018-08-11T08:47:26.659Z,10.71
2018-08-11T08:48:26.564Z,10.68
2018-08-11T08:49:26.550Z,10.71
2018-08-11T08:50:26.513Z,10.73
2018-08-11T08:51:26.486Z,10.65
2018-08-11T08:52:26.464Z,10.71
2018-08-11T08:53:26.453Z,10.66
2018-08-11T08:54:26.401Z,10.63
2018-08-11T08:55:26.382Z,10.63
2018-08-11T08:56:26.357Z,10.59
2018-08-11T08:57:26.326Z,10.58
2018-08-11T08:58:26.295Z,10.70
2018-08-11T08:59:26.275Z,10.63
2018-08-11T09:00:26.250Z,10.74
2018-08-11T09:01:26.216Z,10.60
2018-08-11T09:02:26.199Z,10.59
2018-08-11T09:03:26.166Z,10.66
2018-08-11T09:04:26.137Z,10.70
2018-08-11T09:05:26.111Z,10.70
2018-08-11T09:06:26.086Z,10.65
2018-08-11T09:07:26.059Z,10.59
2018-08-11T09:08:26.011Z,10.65
2018-08-11T09:09:26.004Z,10.63
2018-08-11T09:10:25.962Z,10.63
2018-08-11T09:11:25.949Z,10.59
2018-08-11T09:12:25.919Z,10.65
2018-08-11T09:13:25.901Z,10.68
2018-08-11T09:14:25.869Z,10.65
2018-08-11T09:15:25.847Z,10.74
2018-08-11T09:16:25.815Z,10.65
2018-08-11T09:17:25.772Z,10.59
2018-08-11T09:18:25.769Z,10.63
2018-08-11T09:19:25.792Z,10.71
2018-08-11T09:20:25.708Z,10.70
2018-08-11T09:21:25.688Z,10.59
2018-08-11T09:22:25.657Z,10.65
2018-08-11T09:23:25.627Z,10.68
2018-08-11T09:24:25.599Z,10.73
2018-08-11T09:25:25.583Z,10.71
2018-08-11T09:26:25.546Z,10.62
2018-08-11T09:27:25.523Z,10.70
2018-08-11T09:28:25.492Z,10.65
2018-08-11T09:29:25.443Z,10.63
2018-08-11T09:30:25.439Z,10.66
2018-08-11T09:31:25.421Z,10.63
2018-08-11T09:32:25.371Z,10.65
2018-08-11T09:33:25.362Z,10.63
2018-08-11T09:34:25.334Z,10.68
2018-08-11T09:35:25.308Z,10.55
2018-08-11T09:36:25.273Z,10.59
2018-08-11T09:37:25.236Z,10.68
2018-08-11T09:38:25.225Z,10.60
2018-08-11T09:39:25.206Z,10.58
2018-08-11T09:40:25.152Z,10.68
2018-08-11T09:41:25.139Z,10.56
2018-08-11T09:42:25.125Z,10.70
2018-08-11T09:43:25.088Z,10.70
2018-08-11T09:44:25.064Z,10.77
2018-08-11T09:45:25.042Z,10.83
2018-08-11T09:46:25.007Z,10.88
2018-08-11T09:47:24.980Z,10.86
2018-08-11T09:48:24.958Z,11.02
2018-08-11T09:49:24.972Z,11.02
2018-08-11T09:50:24.899Z,10.98
2018-08-11T09:51:24.874Z,11.09
2018-08-11T09:52:24.927Z,11.06
2018-08-11T09:53:24.803Z,11.09
2018-08-11T09:54:24.793Z,11.02
2018-08-11T09:55:24.761Z,11.09
2018-08-11T09:56:24.736Z,11.11
2018-08-11T09:57:24.718Z,11.11
2018-08-11T09:58:24.665Z,11.17
2018-08-11T09:59:24.647Z,11.13
2018-08-11T10:00:24.616Z,11.19
2018-08-11T10:01:24.612Z,11.24
2018-08-11T10:02:24.583Z,11.32
2018-08-11T10:03:24.554Z,11.39
2018-08-11T10:04:24.534Z,11.36
2018-08-11T10:05:24.498Z,11.49
2018-08-11T10:06:24.473Z,11.50
2018-08-11T10:07:24.448Z,11.61
2018-08-11T10:08:24.419Z,11.59
2018-08-11T10:09:24.402Z,11.70
2018-08-11T10:10:24.355Z,11.67
2018-08-11T10:11:24.347Z,11.65
2018-08-11T10:12:24.303Z,11.62
2018-08-11T10:13:24.296Z,11.68
2018-08-11T10:14:24.268Z,11.70
2018-08-11T10:15:24.222Z,11.83
2018-08-11T10:16:24.213Z,11.87
2018-08-11T10:17:24.174Z,11.90
2018-08-11T10:18:24.212Z,12.02
2018-08-11T10:19:24.142Z,12.13
2018-08-11T10:20:24.117Z,12.15
2018-08-11T10:21:24.071Z,12.27
2018-08-11T10:22:24.069Z,12.39
2018-08-11T10:23:24.023Z,12.63
2018-08-11T10:24:24.016Z,12.82
2018-08-11T10:25:23.989Z,12.96
2018-08-11T10:26:23.965Z,13.15
2018-08-11T10:27:23.926Z,13.18
2018-08-11T10:28:23.926Z,13.21
2018-08-11T10:29:23.897Z,13.18
2018-08-11T10:30:23.877Z,13.07
2018-08-11T10:31:23.852Z,13.18
2018-08-11T10:32:23.806Z,13.29
2018-08-11T10:33:23.782Z,13.38
2018-08-11T10:34:23.773Z,13.59
2018-08-11T10:35:23.755Z,13.83
2018-08-11T10:36:23.733Z,13.98
2018-08-11T10:37:23.708Z,14.01
2018-08-11T10:38:23.690Z,14.06
2018-08-11T10:39:23.669Z,14.06
2018-08-11T10:40:23.647Z,14.28
2018-08-11T10:41:23.625Z,14.34
2018-08-11T10:42:23.592Z,14.27
2018-08-11T10:43:23.569Z,14.29
2018-08-11T10:44:23.542Z,14.21
2018-08-11T10:45:23.507Z,14.04
2018-08-11T10:46:23.509Z,14.17
2018-08-11T10:47:23.477Z,14.06
2018-08-11T10:48:23.458Z,14.04
2018-08-11T10:49:23.419Z,14.31
2018-08-11T10:50:23.414Z,14.21
2018-08-11T10:51:23.385Z,14.39
2018-08-11T10:52:23.372Z,14.42
2018-08-11T10:53:23.337Z,14.57
2018-08-11T10:54:23.306Z,14.29
2018-08-11T10:55:23.296Z,13.95
2018-08-11T10:56:23.263Z,13.91
2018-08-11T10:57:23.256Z,13.98
2018-08-11T10:58:23.228Z,14.28
2018-08-11T10:59:23.205Z,14.44
2018-08-11T11:00:23.184Z,14.28
2018-08-11T11:01:23.206Z,14.28
2018-08-11T11:02:23.137Z,14.27
2018-08-11T11:03:23.118Z,14.42
2018-08-11T11:04:23.093Z,14.71
2018-08-11T11:05:23.079Z,14.94
2018-08-11T11:06:23.047Z,15.30
2018-08-11T11:07:23.027Z,15.43
2018-08-11T11:08:23.065Z,15.20
2018-08-11T11:09:22.984Z,15.13
2018-08-11T11:10:22.963Z,15.19
2018-08-11T11:11:22.923Z,15.28
2018-08-11T11:12:22.917Z,15.63
2018-08-11T11:13:22.880Z,15.63
2018-08-11T11:14:22.945Z,15.33
2018-08-11T11:15:22.831Z,15.01
2018-08-11T11:16:22.829Z,14.80
2018-08-11T11:17:22.813Z,14.71
2018-08-11T11:18:22.787Z,14.84
2018-08-11T11:19:22.770Z,14.75
2018-08-11T11:20:22.751Z,14.75
2018-08-11T11:21:22.721Z,14.86
2018-08-11T11:22:22.708Z,14.81
2018-08-11T11:23:22.674Z,14.78
2018-08-11T11:24:22.640Z,14.67
2018-08-11T11:25:22.618Z,14.72
2018-08-11T11:26:22.613Z,14.83
2018-08-11T11:27:22.594Z,14.90
2018-08-11T11:28:22.553Z,14.84
2018-08-11T11:29:22.529Z,14.71
2018-08-11T11:30:22.528Z,14.53
2018-08-11T11:31:22.511Z,14.52
2018-08-11T11:32:22.468Z,14.81
2018-08-11T11:33:22.470Z,15.01
2018-08-11T11:34:22.443Z,14.94
2018-08-11T11:35:22.414Z,15.13
2018-08-11T11:36:22.400Z,15.35
2018-08-11T11:37:22.381Z,15.09
2018-08-11T11:38:22.356Z,14.95
2018-08-11T11:39:22.314Z,14.88
2018-08-11T11:40:22.295Z,15.01
2018-08-11T11:41:22.293Z,15.11
2018-08-11T11:42:22.274Z,15.03
2018-08-11T11:43:22.264Z,14.98
2018-08-11T11:44:22.230Z,15.08
2018-08-11T11:45:22.209Z,15.52
2018-08-11T11:46:22.180Z,15.92
2018-08-11T11:47:22.142Z,16.22
2018-08-11T11:48:22.120Z,15.86
2018-08-11T11:49:22.124Z,15.68
2018-08-11T11:50:22.098Z,15.49
2018-08-11T11:51:22.079Z,15.52
2018-08-11T11:52:22.055Z,15.78
2018-08-11T11:53:22.039Z,16.04
2018-08-11T11:54:22.015Z,15.74
2018-08-11T11:55:21.995Z,15.56
2018-08-11T11:56:21.977Z,15.35
2018-08-11T11:57:21.952Z,15.42
2018-08-11T11:58:21.939Z,15.51
2018-08-11T11:59:21.915Z,15.57
2018-08-11T12:00:21.893Z,15.38
2018-08-11T12:01:21.868Z,15.56
2018-08-11T12:02:21.847Z,15.93
2018-08-11T12:03:21.831Z,16.07
2018-08-11T12:04:21.805Z,15.86
2018-08-11T12:05:21.786Z,15.61
2018-08-11T12:06:21.771Z,15.79
2018-08-11T12:07:21.745Z,16.04
2018-08-11T12:08:21.731Z,16.06
2018-08-11T12:09:21.690Z,16.03
2018-08-11T12:10:21.683Z,16.30
2018-08-11T12:11:21.667Z,16.60
2018-08-11T12:12:21.651Z,16.67
2018-08-11T12:13:21.630Z,16.75
2018-08-11T12:14:21.606Z,16.71
2018-08-11T12:15:21.567Z,16.62
2018-08-11T12:16:21.568Z,16.40
2018-08-11T12:17:21.550Z,16.48
2018-08-11T12:18:21.527Z,16.68
2018-08-11T12:19:21.525Z,16.55
2018-08-11T12:20:21.586Z,16.49
2018-08-11T12:21:21.474Z,16.30
2018-08-11T12:22:21.450Z,16.23
2018-08-11T12:23:21.434Z,16.07
2018-08-11T12:24:21.413Z,15.93
2018-08-11T12:25:21.397Z,15.82
2018-08-11T12:26:21.370Z,15.74
2018-08-11T12:27:21.349Z,15.59
2018-08-11T12:28:21.333Z,16.03
2018-08-11T12:29:21.310Z,15.96
2018-08-11T12:30:21.297Z,15.94
2018-08-11T12:31:21.274Z,16.22
2018-08-11T12:32:21.250Z,16.26
2018-08-11T12:33:21.242Z,16.40
2018-08-11T12:34:21.220Z,16.31
2018-08-11T12:35:21.199Z,16.06
2018-08-11T12:36:21.162Z,16.20
2018-08-11T12:37:21.162Z,16.30
2018-08-11T12:38:21.122Z,16.30
2018-08-11T12:39:21.117Z,16.34
2018-08-11T12:40:21.099Z,16.44
2018-08-11T12:41:21.081Z,16.77
2018-08-11T12:42:21.063Z,16.65
2018-08-11T12:43:21.044Z,16.63
2018-08-11T12:44:21.018Z,16.80
2018-08-11T12:45:21.002Z,16.68
2018-08-11T12:46:20.983Z,16.27
2018-08-11T12:47:20.989Z,16.04
2018-08-11T12:48:20.947Z,15.97
2018-08-11T12:49:20.928Z,15.82
2018-08-11T12:50:20.902Z,15.92
2018-08-11T12:51:20.886Z,15.82
2018-08-11T12:52:20.869Z,15.94